CLT weather

Charlotte Douglas International Airport
Charlotte, North Carolina, United States

Public forecast

Using degrees Fahrenheit for public forecast. Weather courtesy of forecast.io.

METAR (pilot weather report)

Retrieved 2019/04/21 10:52 UTC (1 hour ago):

KCLT 211052Z 30003KT 6SM BR SCT250 05/04 A2998 RMK AO2 SLP150 T00500039

TAF (pilot weather forecast)

Retrieved 2019/04/21 06:40 UTC (5 hours ago):

TAF KCLT 210538Z 2106/2212 25003KT P6SM FEW050 FM211100 30005KT P6SM SCT050 FM212300 28005KT P6SM FEW050 FM220300 VRB03KT P6SM SKC